sensor_id;sensor_type;location;lat;lon;timestamp;P1;durP1;ratioP1;P2;durP2;ratioP2
62990;SDS011;49084;48.204;16.202;2022-08-11T00:00:04;4.22;;;3.70;;
62990;SDS011;49084;48.204;16.202;2022-08-11T00:02:37;6.90;;;4.75;;
62990;SDS011;49084;48.204;16.202;2022-08-11T00:05:12;4.88;;;3.92;;
62990;SDS011;49084;48.204;16.202;2022-08-11T00:10:12;7.60;;;3.58;;
62990;SDS011;49084;48.204;16.202;2022-08-11T00:12:40;5.65;;;3.65;;
62990;SDS011;49084;48.204;16.202;2022-08-11T00:15:07;8.52;;;4.75;;
62990;SDS011;49084;48.204;16.202;2022-08-11T00:17:34;6.72;;;3.55;;
62990;SDS011;49084;48.204;16.202;2022-08-11T00:20:05;7.63;;;4.00;;
62990;SDS011;49084;48.204;16.202;2022-08-11T00:22:34;4.82;;;4.00;;
62990;SDS011;49084;48.204;16.202;2022-08-11T00:25:15;4.75;;;3.78;;
62990;SDS011;49084;48.204;16.202;2022-08-11T00:27:43;6.57;;;3.85;;
62990;SDS011;49084;48.204;16.202;2022-08-11T00:30:11;6.53;;;4.10;;
62990;SDS011;49084;48.204;16.202;2022-08-11T00:32:38;4.20;;;3.78;;
62990;SDS011;49084;48.204;16.202;2022-08-11T00:35:07;7.10;;;3.88;;
62990;SDS011;49084;48.204;16.202;2022-08-11T00:37:36;8.50;;;4.32;;
62990;SDS011;49084;48.204;16.202;2022-08-11T00:40:03;4.63;;;3.58;;
62990;SDS011;49084;48.204;16.202;2022-08-11T00:43:11;6.28;;;4.10;;
62990;SDS011;49084;48.204;16.202;2022-08-11T00:45:41;5.85;;;4.00;;
62990;SDS011;49084;48.204;16.202;2022-08-11T00:48:23;4.63;;;3.37;;
62990;SDS011;49084;48.204;16.202;2022-08-11T01:16:40;4.57;;;4.07;;
62990;SDS011;49084;48.204;16.202;2022-08-11T01:39:23;4.80;;;4.32;;
62990;SDS011;49084;48.204;16.202;2022-08-11T01:51:04;6.53;;;4.40;;
62990;SDS011;49084;48.204;16.202;2022-08-11T01:54:05;7.53;;;4.60;;
62990;SDS011;49084;48.204;16.202;2022-08-11T01:59:51;8.57;;;4.53;;
62990;SDS011;49084;48.204;16.202;2022-08-11T02:05:22;5.82;;;4.30;;
62990;SDS011;49084;48.204;16.202;2022-08-11T02:13:50;6.38;;;4.38;;
62990;SDS011;49084;48.204;16.202;2022-08-11T02:16:36;4.88;;;4.35;;
62990;SDS011;49084;48.204;16.202;2022-08-11T02:19:37;4.70;;;4.30;;
62990;SDS011;49084;48.204;16.202;2022-08-11T02:26:11;4.50;;;4.10;;
62990;SDS011;49084;48.204;16.202;2022-08-11T02:28:48;6.10;;;4.85;;
62990;SDS011;49084;48.204;16.202;2022-08-11T02:34:27;6.75;;;5.00;;
62990;SDS011;49084;48.204;16.202;2022-08-11T02:37:16;4.90;;;4.40;;
62990;SDS011;49084;48.204;16.202;2022-08-11T02:40:09;6.18;;;4.97;;
62990;SDS011;49084;48.204;16.202;2022-08-11T02:54:15;6.93;;;4.35;;
62990;SDS011;49084;48.204;16.202;2022-08-11T02:59:22;8.90;;;5.03;;
62990;SDS011;49084;48.204;16.202;2022-08-11T03:13:37;5.40;;;4.63;;
62990;SDS011;49084;48.204;16.202;2022-08-11T03:16:52;5.45;;;4.88;;
62990;SDS011;49084;48.204;16.202;2022-08-11T03:25:30;6.15;;;5.07;;
62990;SDS011;49084;48.204;16.202;2022-08-11T03:28:26;5.53;;;4.88;;
62990;SDS011;49084;48.204;16.202;2022-08-11T03:33:57;7.28;;;5.07;;
62990;SDS011;49084;48.204;16.202;2022-08-11T03:41:54;6.05;;;5.03;;
62990;SDS011;49084;48.204;16.202;2022-08-11T03:50:29;6.47;;;5.20;;
62990;SDS011;49084;48.204;16.202;2022-08-11T03:53:16;6.57;;;4.72;;
62990;SDS011;49084;48.204;16.202;2022-08-11T04:01:37;10.95;;;5.50;;
62990;SDS011;49084;48.204;16.202;2022-08-11T04:24:31;8.80;;;5.10;;
62990;SDS011;49084;48.204;16.202;2022-08-11T04:30:06;9.57;;;4.75;;
62990;SDS011;49084;48.204;16.202;2022-08-11T05:13:31;10.07;;;5.25;;
62990;SDS011;49084;48.204;16.202;2022-08-11T05:16:18;7.05;;;5.35;;
62990;SDS011;49084;48.204;16.202;2022-08-11T05:19:08;6.47;;;5.05;;
62990;SDS011;49084;48.204;16.202;2022-08-11T05:22:01;7.47;;;4.40;;
62990;SDS011;49084;48.204;16.202;2022-08-11T05:24:56;5.72;;;4.78;;
62990;SDS011;49084;48.204;16.202;2022-08-11T05:30:48;14.80;;;4.22;;
62990;SDS011;49084;48.204;16.202;2022-08-11T05:33:46;5.20;;;4.25;;
62990;SDS011;49084;48.204;16.202;2022-08-11T05:39:20;8.32;;;5.30;;
62990;SDS011;49084;48.204;16.202;2022-08-11T05:42:08;7.75;;;4.70;;
62990;SDS011;49084;48.204;16.202;2022-08-11T05:44:54;4.03;;;3.70;;
62990;SDS011;49084;48.204;16.202;2022-08-11T05:47:46;6.97;;;3.80;;
62990;SDS011;49084;48.204;16.202;2022-08-11T05:50:31;6.50;;;4.17;;
62990;SDS011;49084;48.204;16.202;2022-08-11T05:53:16;4.88;;;4.10;;
62990;SDS011;49084;48.204;16.202;2022-08-11T05:56:03;9.20;;;4.43;;
62990;SDS011;49084;48.204;16.202;2022-08-11T05:58:46;11.13;;;3.65;;
62990;SDS011;49084;48.204;16.202;2022-08-11T06:01:22;9.82;;;3.88;;
62990;SDS011;49084;48.204;16.202;2022-08-11T06:03:50;5.93;;;3.33;;
62990;SDS011;49084;48.204;16.202;2022-08-11T06:06:36;5.82;;;3.72;;
62990;SDS011;49084;48.204;16.202;2022-08-11T06:09:06;4.03;;;3.38;;
62990;SDS011;49084;48.204;16.202;2022-08-11T06:11:36;8.85;;;3.50;;
62990;SDS011;49084;48.204;16.202;2022-08-11T06:14:04;5.95;;;3.17;;
62990;SDS011;49084;48.204;16.202;2022-08-11T06:16:31;6.00;;;3.08;;
62990;SDS011;49084;48.204;16.202;2022-08-11T06:18:58;3.30;;;2.95;;
62990;SDS011;49084;48.204;16.202;2022-08-11T06:21:24;4.65;;;2.70;;
62990;SDS011;49084;48.204;16.202;2022-08-11T06:23:51;7.88;;;2.67;;
62990;SDS011;49084;48.204;16.202;2022-08-11T06:26:19;5.53;;;2.60;;
62990;SDS011;49084;48.204;16.202;2022-08-11T06:28:45;8.60;;;3.50;;
62990;SDS011;49084;48.204;16.202;2022-08-11T06:31:14;4.05;;;2.50;;
62990;SDS011;49084;48.204;16.202;2022-08-11T06:39:38;9.48;;;2.58;;
62990;SDS011;49084;48.204;16.202;2022-08-11T06:42:31;6.57;;;2.33;;
62990;SDS011;49084;48.204;16.202;2022-08-11T06:47:41;5.65;;;2.75;;
62990;SDS011;49084;48.204;16.202;2022-08-11T06:50:13;3.78;;;2.55;;
62990;SDS011;49084;48.204;16.202;2022-08-11T06:53:02;5.15;;;2.40;;
62990;SDS011;49084;48.204;16.202;2022-08-11T06:55:29;3.80;;;2.60;;
62990;SDS011;49084;48.204;16.202;2022-08-11T06:58:17;4.00;;;2.13;;
62990;SDS011;49084;48.204;16.202;2022-08-11T07:01:08;4.95;;;2.35;;
62990;SDS011;49084;48.204;16.202;2022-08-11T07:03:39;3.13;;;2.08;;
62990;SDS011;49084;48.204;16.202;2022-08-11T07:06:27;3.10;;;1.83;;
62990;SDS011;49084;48.204;16.202;2022-08-11T07:09:53;7.35;;;2.17;;
62990;SDS011;49084;48.204;16.202;2022-08-11T07:12:50;4.95;;;1.80;;
62990;SDS011;49084;48.204;16.202;2022-08-11T07:15:39;2.13;;;1.60;;
62990;SDS011;49084;48.204;16.202;2022-08-11T07:18:09;5.05;;;2.17;;
62990;SDS011;49084;48.204;16.202;2022-08-11T07:21:49;4.68;;;1.60;;
62990;SDS011;49084;48.204;16.202;2022-08-11T07:24:29;2.65;;;2.00;;
62990;SDS011;49084;48.204;16.202;2022-08-11T07:27:18;2.85;;;1.98;;
62990;SDS011;49084;48.204;16.202;2022-08-11T07:30:25;5.05;;;1.83;;
62990;SDS011;49084;48.204;16.202;2022-08-11T07:32:54;3.72;;;2.20;;
62990;SDS011;49084;48.204;16.202;2022-08-11T07:35:41;2.60;;;1.98;;
62990;SDS011;49084;48.204;16.202;2022-08-11T07:38:13;6.20;;;1.65;;
62990;SDS011;49084;48.204;16.202;2022-08-11T07:40:44;3.80;;;1.67;;
62990;SDS011;49084;48.204;16.202;2022-08-11T07:43:11;3.17;;;1.90;;
62990;SDS011;49084;48.204;16.202;2022-08-11T07:45:43;3.40;;;1.77;;
62990;SDS011;49084;48.204;16.202;2022-08-11T07:48:28;3.05;;;1.80;;
62990;SDS011;49084;48.204;16.202;2022-08-11T07:51:17;4.10;;;1.80;;
62990;SDS011;49084;48.204;16.202;2022-08-11T07:54:03;3.50;;;1.63;;
62990;SDS011;49084;48.204;16.202;2022-08-11T07:56:33;2.58;;;1.70;;
62990;SDS011;49084;48.204;16.202;2022-08-11T07:59:00;2.75;;;1.83;;
62990;SDS011;49084;48.204;16.202;2022-08-11T08:01:45;5.20;;;2.08;;
62990;SDS011;49084;48.204;16.202;2022-08-11T08:04:30;7.68;;;2.00;;
62990;SDS011;49084;48.204;16.202;2022-08-11T08:07:16;3.08;;;1.58;;
62990;SDS011;49084;48.204;16.202;2022-08-11T08:10:04;3.53;;;1.35;;
62990;SDS011;49084;48.204;16.202;2022-08-11T08:12:51;2.45;;;1.60;;
62990;SDS011;49084;48.204;16.202;2022-08-11T08:15:37;4.22;;;1.58;;
62990;SDS011;49084;48.204;16.202;2022-08-11T08:18:23;1.65;;;1.40;;
62990;SDS011;49084;48.204;16.202;2022-08-11T08:20:49;1.92;;;1.70;;
62990;SDS011;49084;48.204;16.202;2022-08-11T08:23:17;2.10;;;1.67;;
62990;SDS011;49084;48.204;16.202;2022-08-11T08:25:57;3.78;;;1.30;;
62990;SDS011;49084;48.204;16.202;2022-08-11T08:28:25;2.35;;;1.20;;
62990;SDS011;49084;48.204;16.202;2022-08-11T08:30:52;2.45;;;1.20;;
62990;SDS011;49084;48.204;16.202;2022-08-11T08:35:48;5.90;;;1.10;;
62990;SDS011;49084;48.204;16.202;2022-08-11T08:38:35;2.30;;;0.83;;
62990;SDS011;49084;48.204;16.202;2022-08-11T08:41:11;1.83;;;0.98;;
62990;SDS011;49084;48.204;16.202;2022-08-11T08:43:39;2.33;;;1.00;;
62990;SDS011;49084;48.204;16.202;2022-08-11T08:46:08;1.55;;;1.00;;
62990;SDS011;49084;48.204;16.202;2022-08-11T08:48:35;6.22;;;1.00;;
62990;SDS011;49084;48.204;16.202;2022-08-11T08:51:09;1.02;;;0.90;;
62990;SDS011;49084;48.204;16.202;2022-08-11T08:53:55;3.33;;;1.35;;
62990;SDS011;49084;48.204;16.202;2022-08-11T08:56:28;4.63;;;1.13;;
62990;SDS011;49084;48.204;16.202;2022-08-11T09:01:24;3.20;;;1.10;;
62990;SDS011;49084;48.204;16.202;2022-08-11T09:04:07;5.15;;;1.05;;
62990;SDS011;49084;48.204;16.202;2022-08-11T09:06:37;4.22;;;1.05;;
62990;SDS011;49084;48.204;16.202;2022-08-11T09:09:07;4.00;;;1.05;;
62990;SDS011;49084;48.204;16.202;2022-08-11T09:11:33;1.67;;;1.00;;
62990;SDS011;49084;48.204;16.202;2022-08-11T09:14:17;3.53;;;1.05;;
62990;SDS011;49084;48.204;16.202;2022-08-11T09:17:11;4.45;;;0.90;;
62990;SDS011;49084;48.204;16.202;2022-08-11T09:19:37;1.95;;;0.85;;
62990;SDS011;49084;48.204;16.202;2022-08-11T09:22:03;1.27;;;0.70;;
62990;SDS011;49084;48.204;16.202;2022-08-11T09:24:48;1.58;;;1.00;;
62990;SDS011;49084;48.204;16.202;2022-08-11T09:27:34;2.08;;;0.98;;
62990;SDS011;49084;48.204;16.202;2022-08-11T09:32:29;2.40;;;0.73;;
62990;SDS011;49084;48.204;16.202;2022-08-11T09:34:55;1.02;;;0.90;;
62990;SDS011;49084;48.204;16.202;2022-08-11T09:37:22;2.50;;;0.85;;
62990;SDS011;49084;48.204;16.202;2022-08-11T09:40:07;1.42;;;0.90;;
62990;SDS011;49084;48.204;16.202;2022-08-11T09:42:54;1.38;;;0.82;;
62990;SDS011;49084;48.204;16.202;2022-08-11T09:45:39;0.70;;;0.70;;
62990;SDS011;49084;48.204;16.202;2022-08-11T09:50:35;1.30;;;1.05;;
62990;SDS011;49084;48.204;16.202;2022-08-11T09:53:03;4.57;;;0.90;;
62990;SDS011;49084;48.204;16.202;2022-08-11T09:55:31;0.80;;;0.80;;
62990;SDS011;49084;48.204;16.202;2022-08-11T09:57:57;1.10;;;1.00;;
62990;SDS011;49084;48.204;16.202;2022-08-11T10:00:43;1.98;;;0.82;;
62990;SDS011;49084;48.204;16.202;2022-08-11T10:03:14;2.38;;;1.13;;
62990;SDS011;49084;48.204;16.202;2022-08-11T10:05:50;3.03;;;0.90;;
62990;SDS011;49084;48.204;16.202;2022-08-11T10:08:39;5.13;;;1.10;;
62990;SDS011;49084;48.204;16.202;2022-08-11T10:11:08;2.15;;;0.93;;
62990;SDS011;49084;48.204;16.202;2022-08-11T10:13:43;4.10;;;1.58;;
62990;SDS011;49084;48.204;16.202;2022-08-11T10:16:30;2.13;;;1.13;;
62990;SDS011;49084;48.204;16.202;2022-08-11T10:18:58;3.03;;;1.23;;
62990;SDS011;49084;48.204;16.202;2022-08-11T10:24:06;1.23;;;1.15;;
62990;SDS011;49084;48.204;16.202;2022-08-11T10:26:52;2.28;;;0.80;;
62990;SDS011;49084;48.204;16.202;2022-08-11T10:29:23;4.30;;;1.17;;
62990;SDS011;49084;48.204;16.202;2022-08-11T10:32:08;3.13;;;0.85;;
62990;SDS011;49084;48.204;16.202;2022-08-11T10:34:54;1.25;;;0.98;;
62990;SDS011;49084;48.204;16.202;2022-08-11T10:37:22;4.65;;;1.20;;
62990;SDS011;49084;48.204;16.202;2022-08-11T10:39:49;2.72;;;0.93;;
62990;SDS011;49084;48.204;16.202;2022-08-11T10:42:16;1.30;;;1.15;;
62990;SDS011;49084;48.204;16.202;2022-08-11T10:45:05;1.40;;;0.90;;
62990;SDS011;49084;48.204;16.202;2022-08-11T10:47:52;1.90;;;0.70;;
62990;SDS011;49084;48.204;16.202;2022-08-11T10:50:19;3.63;;;1.17;;
62990;SDS011;49084;48.204;16.202;2022-08-11T10:53:05;3.22;;;0.90;;
62990;SDS011;49084;48.204;16.202;2022-08-11T10:55:50;4.20;;;0.68;;
62990;SDS011;49084;48.204;16.202;2022-08-11T10:58:38;1.00;;;0.70;;
62990;SDS011;49084;48.204;16.202;2022-08-11T11:03:50;2.13;;;0.63;;
62990;SDS011;49084;48.204;16.202;2022-08-11T11:08:59;2.28;;;0.68;;
62990;SDS011;49084;48.204;16.202;2022-08-11T11:11:38;0.93;;;0.68;;
62990;SDS011;49084;48.204;16.202;2022-08-11T11:14:29;4.05;;;0.93;;
62990;SDS011;49084;48.204;16.202;2022-08-11T11:17:24;3.78;;;1.50;;
62990;SDS011;49084;48.204;16.202;2022-08-11T11:20:23;2.53;;;1.00;;
62990;SDS011;49084;48.204;16.202;2022-08-11T11:23:07;4.03;;;0.90;;
62990;SDS011;49084;48.204;16.202;2022-08-11T11:25:48;1.15;;;0.82;;
62990;SDS011;49084;48.204;16.202;2022-08-11T11:34:26;0.80;;;0.80;;
62990;SDS011;49084;48.204;16.202;2022-08-11T11:37:03;2.70;;;0.93;;
62990;SDS011;49084;48.204;16.202;2022-08-11T11:39:31;2.35;;;1.10;;
62990;SDS011;49084;48.204;16.202;2022-08-11T11:42:02;2.17;;;0.80;;
62990;SDS011;49084;48.204;16.202;2022-08-11T11:44:32;4.22;;;0.80;;
62990;SDS011;49084;48.204;16.202;2022-08-11T11:46:59;1.02;;;0.52;;
62990;SDS011;49084;48.204;16.202;2022-08-11T11:49:26;1.08;;;0.90;;
62990;SDS011;49084;48.204;16.202;2022-08-11T11:51:54;0.98;;;0.60;;
62990;SDS011;49084;48.204;16.202;2022-08-11T11:54:25;1.67;;;0.80;;
62990;SDS011;49084;48.204;16.202;2022-08-11T11:56:54;4.07;;;0.93;;
62990;SDS011;49084;48.204;16.202;2022-08-11T11:59:22;4.25;;;0.82;;
62990;SDS011;49084;48.204;16.202;2022-08-11T12:02:10;2.20;;;0.60;;
62990;SDS011;49084;48.204;16.202;2022-08-11T12:04:43;1.15;;;0.60;;
62990;SDS011;49084;48.204;16.202;2022-08-11T12:07:12;3.40;;;0.90;;
62990;SDS011;49084;48.204;16.202;2022-08-11T12:09:57;1.33;;;1.08;;
62990;SDS011;49084;48.204;16.202;2022-08-11T12:12:23;3.28;;;0.70;;
62990;SDS011;49084;48.204;16.202;2022-08-11T12:15:08;2.53;;;0.80;;
62990;SDS011;49084;48.204;16.202;2022-08-11T12:17:35;3.30;;;0.63;;
62990;SDS011;49084;48.204;16.202;2022-08-11T12:20:02;2.47;;;1.10;;
62990;SDS011;49084;48.204;16.202;2022-08-11T12:22:29;2.33;;;0.80;;
62990;SDS011;49084;48.204;16.202;2022-08-11T12:25:13;2.25;;;0.68;;
62990;SDS011;49084;48.204;16.202;2022-08-11T12:27:58;5.40;;;0.70;;
62990;SDS011;49084;48.204;16.202;2022-08-11T12:30:24;0.57;;;0.57;;
62990;SDS011;49084;48.204;16.202;2022-08-11T12:32:50;3.03;;;0.63;;
62990;SDS011;49084;48.204;16.202;2022-08-11T12:35:17;0.75;;;0.75;;
62990;SDS011;49084;48.204;16.202;2022-08-11T12:37:50;0.93;;;0.80;;
62990;SDS011;49084;48.204;16.202;2022-08-11T12:40:25;0.55;;;0.55;;
62990;SDS011;49084;48.204;16.202;2022-08-11T12:43:14;1.83;;;0.68;;
62990;SDS011;49084;48.204;16.202;2022-08-11T12:46:01;1.77;;;0.82;;
62990;SDS011;49084;48.204;16.202;2022-08-11T12:48:31;3.78;;;1.10;;
62990;SDS011;49084;48.204;16.202;2022-08-11T12:51:22;0.80;;;0.77;;
62990;SDS011;49084;48.204;16.202;2022-08-11T12:54:22;2.20;;;0.50;;
62990;SDS011;49084;48.204;16.202;2022-08-11T12:57:02;3.13;;;0.60;;
62990;SDS011;49084;48.204;16.202;2022-08-11T12:59:52;0.85;;;0.73;;
62990;SDS011;49084;48.204;16.202;2022-08-11T13:02:37;5.85;;;1.50;;
62990;SDS011;49084;48.204;16.202;2022-08-11T13:05:23;2.05;;;0.50;;
62990;SDS011;49084;48.204;16.202;2022-08-11T13:07:49;1.52;;;0.57;;
62990;SDS011;49084;48.204;16.202;2022-08-11T13:10:16;2.72;;;0.95;;
62990;SDS011;49084;48.204;16.202;2022-08-11T13:13:04;3.83;;;0.87;;
62990;SDS011;49084;48.204;16.202;2022-08-11T13:15:31;0.90;;;0.60;;
62990;SDS011;49084;48.204;16.202;2022-08-11T13:18:00;1.20;;;0.60;;
62990;SDS011;49084;48.204;16.202;2022-08-11T13:20:27;3.58;;;0.70;;
62990;SDS011;49084;48.204;16.202;2022-08-11T13:22:55;2.05;;;1.00;;
62990;SDS011;49084;48.204;16.202;2022-08-11T13:25:23;2.10;;;0.70;;
62990;SDS011;49084;48.204;16.202;2022-08-11T13:27:52;0.80;;;0.65;;
62990;SDS011;49084;48.204;16.202;2022-08-11T13:33:06;0.82;;;0.82;;
62990;SDS011;49084;48.204;16.202;2022-08-11T13:35:33;3.75;;;0.80;;
62990;SDS011;49084;48.204;16.202;2022-08-11T13:38:00;3.13;;;0.77;;
62990;SDS011;49084;48.204;16.202;2022-08-11T13:40:27;0.80;;;0.80;;
62990;SDS011;49084;48.204;16.202;2022-08-11T13:42:54;1.85;;;0.50;;
62990;SDS011;49084;48.204;16.202;2022-08-11T13:45:22;2.35;;;1.13;;
62990;SDS011;49084;48.204;16.202;2022-08-11T13:47:50;3.67;;;0.77;;
62990;SDS011;49084;48.204;16.202;2022-08-11T13:50:19;1.45;;;0.73;;
62990;SDS011;49084;48.204;16.202;2022-08-11T13:52:46;1.60;;;0.50;;
62990;SDS011;49084;48.204;16.202;2022-08-11T13:55:14;1.65;;;0.90;;
62990;SDS011;49084;48.204;16.202;2022-08-11T13:57:50;0.98;;;0.65;;
62990;SDS011;49084;48.204;16.202;2022-08-11T14:00:17;4.30;;;0.90;;
62990;SDS011;49084;48.204;16.202;2022-08-11T14:02:43;5.18;;;0.95;;
62990;SDS011;49084;48.204;16.202;2022-08-11T14:05:16;2.33;;;0.55;;
62990;SDS011;49084;48.204;16.202;2022-08-11T14:07:48;2.20;;;1.17;;
62990;SDS011;49084;48.204;16.202;2022-08-11T14:10:17;3.15;;;1.10;;
62990;SDS011;49084;48.204;16.202;2022-08-11T14:12:56;1.85;;;0.85;;
62990;SDS011;49084;48.204;16.202;2022-08-11T14:15:44;0.82;;;0.82;;
62990;SDS011;49084;48.204;16.202;2022-08-11T14:23:30;1.33;;;0.70;;
62990;SDS011;49084;48.204;16.202;2022-08-11T14:26:01;2.67;;;0.80;;
62990;SDS011;49084;48.204;16.202;2022-08-11T14:28:45;2.90;;;0.90;;
62990;SDS011;49084;48.204;16.202;2022-08-11T14:31:13;3.33;;;1.05;;
62990;SDS011;49084;48.204;16.202;2022-08-11T14:33:39;0.85;;;0.85;;
62990;SDS011;49084;48.204;16.202;2022-08-11T14:36:06;4.78;;;0.90;;
62990;SDS011;49084;48.204;16.202;2022-08-11T14:38:34;2.50;;;0.73;;
62990;SDS011;49084;48.204;16.202;2022-08-11T14:41:01;3.40;;;1.10;;
62990;SDS011;49084;48.204;16.202;2022-08-11T14:43:46;2.45;;;1.10;;
62990;SDS011;49084;48.204;16.202;2022-08-11T14:46:31;2.70;;;0.88;;
62990;SDS011;49084;48.204;16.202;2022-08-11T14:49:16;2.88;;;0.77;;
62990;SDS011;49084;48.204;16.202;2022-08-11T14:51:44;1.33;;;1.08;;
62990;SDS011;49084;48.204;16.202;2022-08-11T14:54:12;3.67;;;1.63;;
62990;SDS011;49084;48.204;16.202;2022-08-11T14:56:57;2.20;;;1.20;;
62990;SDS011;49084;48.204;16.202;2022-08-11T14:59:24;5.55;;;0.93;;
62990;SDS011;49084;48.204;16.202;2022-08-11T15:01:50;5.25;;;0.80;;
62990;SDS011;49084;48.204;16.202;2022-08-11T15:04:34;4.03;;;1.00;;
62990;SDS011;49084;48.204;16.202;2022-08-11T15:07:02;4.18;;;0.93;;
62990;SDS011;49084;48.204;16.202;2022-08-11T15:09:28;1.10;;;1.00;;
62990;SDS011;49084;48.204;16.202;2022-08-11T15:11:54;2.42;;;0.98;;
62990;SDS011;49084;48.204;16.202;2022-08-11T15:14:32;6.07;;;1.10;;
62990;SDS011;49084;48.204;16.202;2022-08-11T15:17:17;2.75;;;1.05;;
62990;SDS011;49084;48.204;16.202;2022-08-11T15:19:44;3.60;;;1.25;;
62990;SDS011;49084;48.204;16.202;2022-08-11T15:22:30;2.90;;;0.95;;
62990;SDS011;49084;48.204;16.202;2022-08-11T15:25:14;1.52;;;0.85;;
62990;SDS011;49084;48.204;16.202;2022-08-11T15:27:41;1.95;;;1.25;;
62990;SDS011;49084;48.204;16.202;2022-08-11T15:30:28;3.20;;;1.20;;
62990;SDS011;49084;48.204;16.202;2022-08-11T15:33:13;4.78;;;1.10;;
62990;SDS011;49084;48.204;16.202;2022-08-11T15:36:00;4.75;;;1.27;;
62990;SDS011;49084;48.204;16.202;2022-08-11T15:38:48;13.32;;;8.00;;
62990;SDS011;49084;48.204;16.202;2022-08-11T15:41:22;8.73;;;4.10;;
62990;SDS011;49084;48.204;16.202;2022-08-11T15:44:13;6.55;;;2.10;;
62990;SDS011;49084;48.204;16.202;2022-08-11T15:46:59;2.40;;;1.40;;
62990;SDS011;49084;48.204;16.202;2022-08-11T15:49:29;2.80;;;1.38;;
62990;SDS011;49084;48.204;16.202;2022-08-11T15:52:05;5.55;;;1.40;;
62990;SDS011;49084;48.204;16.202;2022-08-11T15:54:34;8.85;;;2.10;;
62990;SDS011;49084;48.204;16.202;2022-08-11T15:57:06;3.08;;;2.42;;
62990;SDS011;49084;48.204;16.202;2022-08-11T15:59:33;7.10;;;2.20;;
62990;SDS011;49084;48.204;16.202;2022-08-11T16:02:21;2.92;;;1.50;;
62990;SDS011;49084;48.204;16.202;2022-08-11T16:05:00;3.28;;;1.50;;
62990;SDS011;49084;48.204;16.202;2022-08-11T16:07:31;1.60;;;1.25;;
62990;SDS011;49084;48.204;16.202;2022-08-11T16:10:32;4.65;;;1.45;;
62990;SDS011;49084;48.204;16.202;2022-08-11T16:15:48;2.63;;;1.50;;
62990;SDS011;49084;48.204;16.202;2022-08-11T16:18:42;3.40;;;1.88;;
62990;SDS011;49084;48.204;16.202;2022-08-11T16:21:16;2.10;;;1.30;;
62990;SDS011;49084;48.204;16.202;2022-08-11T16:23:56;1.45;;;1.20;;
62990;SDS011;49084;48.204;16.202;2022-08-11T16:26:24;8.03;;;1.73;;
62990;SDS011;49084;48.204;16.202;2022-08-11T16:31:23;1.75;;;1.40;;
62990;SDS011;49084;48.204;16.202;2022-08-11T16:33:50;3.80;;;1.52;;
62990;SDS011;49084;48.204;16.202;2022-08-11T16:36:20;7.22;;;1.48;;
62990;SDS011;49084;48.204;16.202;2022-08-11T16:39:07;2.60;;;1.50;;
62990;SDS011;49084;48.204;16.202;2022-08-11T16:41:36;9.00;;;1.85;;
62990;SDS011;49084;48.204;16.202;2022-08-11T16:44:23;4.65;;;1.42;;
62990;SDS011;49084;48.204;16.202;2022-08-11T16:47:10;4.55;;;1.20;;
62990;SDS011;49084;48.204;16.202;2022-08-11T16:49:43;3.97;;;1.70;;
62990;SDS011;49084;48.204;16.202;2022-08-11T16:52:13;3.17;;;1.48;;
62990;SDS011;49084;48.204;16.202;2022-08-11T16:54:40;2.17;;;1.20;;
62990;SDS011;49084;48.204;16.202;2022-08-11T16:57:08;3.58;;;1.70;;
62990;SDS011;49084;48.204;16.202;2022-08-11T16:59:57;1.73;;;1.20;;
62990;SDS011;49084;48.204;16.202;2022-08-11T17:02:27;3.28;;;1.65;;
62990;SDS011;49084;48.204;16.202;2022-08-11T17:05:23;6.93;;;1.38;;
62990;SDS011;49084;48.204;16.202;2022-08-11T17:08:08;2.53;;;1.50;;
62990;SDS011;49084;48.204;16.202;2022-08-11T17:11:11;2.38;;;1.20;;
62990;SDS011;49084;48.204;16.202;2022-08-11T17:13:57;4.72;;;1.98;;
62990;SDS011;49084;48.204;16.202;2022-08-11T17:16:31;3.50;;;1.30;;
62990;SDS011;49084;48.204;16.202;2022-08-11T17:21:42;3.42;;;1.60;;
62990;SDS011;49084;48.204;16.202;2022-08-11T17:24:30;1.67;;;1.33;;
62990;SDS011;49084;48.204;16.202;2022-08-11T17:26:58;3.22;;;2.00;;
62990;SDS011;49084;48.204;16.202;2022-08-11T17:32:01;1.95;;;1.25;;
62990;SDS011;49084;48.204;16.202;2022-08-11T17:34:49;1.35;;;1.15;;
62990;SDS011;49084;48.204;16.202;2022-08-11T17:37:37;2.28;;;1.23;;
62990;SDS011;49084;48.204;16.202;2022-08-11T17:40:06;4.40;;;1.55;;
62990;SDS011;49084;48.204;16.202;2022-08-11T17:42:34;3.38;;;1.23;;
62990;SDS011;49084;48.204;16.202;2022-08-11T17:45:20;2.75;;;1.58;;
62990;SDS011;49084;48.204;16.202;2022-08-11T17:48:06;2.33;;;1.33;;
62990;SDS011;49084;48.204;16.202;2022-08-11T17:50:50;1.77;;;1.13;;
62990;SDS011;49084;48.204;16.202;2022-08-11T17:53:17;6.22;;;1.55;;
62990;SDS011;49084;48.204;16.202;2022-08-11T17:56:03;4.07;;;1.55;;
62990;SDS011;49084;48.204;16.202;2022-08-11T17:58:48;1.50;;;1.10;;
62990;SDS011;49084;48.204;16.202;2022-08-11T18:01:36;4.25;;;1.30;;
62990;SDS011;49084;48.204;16.202;2022-08-11T18:06:30;4.13;;;1.65;;
62990;SDS011;49084;48.204;16.202;2022-08-11T18:08:58;2.63;;;1.38;;
62990;SDS011;49084;48.204;16.202;2022-08-11T18:11:43;4.95;;;1.77;;
62990;SDS011;49084;48.204;16.202;2022-08-11T18:14:29;6.85;;;1.50;;
62990;SDS011;49084;48.204;16.202;2022-08-11T18:17:16;3.35;;;1.50;;
62990;SDS011;49084;48.204;16.202;2022-08-11T18:20:00;4.55;;;1.40;;
62990;SDS011;49084;48.204;16.202;2022-08-11T18:22:44;3.13;;;1.45;;
62990;SDS011;49084;48.204;16.202;2022-08-11T18:25:37;5.65;;;1.60;;
62990;SDS011;49084;48.204;16.202;2022-08-11T18:28:23;5.45;;;1.30;;
62990;SDS011;49084;48.204;16.202;2022-08-11T18:31:13;4.72;;;2.08;;
62990;SDS011;49084;48.204;16.202;2022-08-11T18:34:00;4.65;;;1.70;;
62990;SDS011;49084;48.204;16.202;2022-08-11T18:36:50;6.50;;;1.50;;
62990;SDS011;49084;48.204;16.202;2022-08-11T18:39:41;1.63;;;1.38;;
62990;SDS011;49084;48.204;16.202;2022-08-11T18:42:28;4.32;;;2.38;;
62990;SDS011;49084;48.204;16.202;2022-08-11T18:45:15;4.68;;;1.85;;
62990;SDS011;49084;48.204;16.202;2022-08-11T18:48:03;4.57;;;1.63;;
62990;SDS011;49084;48.204;16.202;2022-08-11T18:50:53;2.08;;;1.48;;
62990;SDS011;49084;48.204;16.202;2022-08-11T18:53:39;2.67;;;1.70;;
62990;SDS011;49084;48.204;16.202;2022-08-11T18:56:26;2.45;;;1.52;;
62990;SDS011;49084;48.204;16.202;2022-08-11T18:59:13;2.83;;;1.20;;
62990;SDS011;49084;48.204;16.202;2022-08-11T19:02:00;5.22;;;1.52;;
62990;SDS011;49084;48.204;16.202;2022-08-11T19:04:46;2.50;;;1.25;;
62990;SDS011;49084;48.204;16.202;2022-08-11T19:07:32;1.65;;;1.10;;
62990;SDS011;49084;48.204;16.202;2022-08-11T19:10:18;5.35;;;1.52;;
62990;SDS011;49084;48.204;16.202;2022-08-11T19:13:03;4.28;;;1.70;;
62990;SDS011;49084;48.204;16.202;2022-08-11T19:15:53;6.45;;;1.90;;
62990;SDS011;49084;48.204;16.202;2022-08-11T19:18:38;7.50;;;1.88;;
62990;SDS011;49084;48.204;16.202;2022-08-11T19:21:24;5.25;;;1.75;;
62990;SDS011;49084;48.204;16.202;2022-08-11T19:24:10;1.60;;;1.40;;
62990;SDS011;49084;48.204;16.202;2022-08-11T19:26:56;3.58;;;1.40;;
62990;SDS011;49084;48.204;16.202;2022-08-11T19:29:41;3.63;;;1.60;;
62990;SDS011;49084;48.204;16.202;2022-08-11T19:32:26;3.22;;;1.70;;
62990;SDS011;49084;48.204;16.202;2022-08-11T19:35:13;6.38;;;1.70;;
62990;SDS011;49084;48.204;16.202;2022-08-11T19:37:57;2.60;;;1.58;;
62990;SDS011;49084;48.204;16.202;2022-08-11T19:40:44;3.33;;;1.50;;
62990;SDS011;49084;48.204;16.202;2022-08-11T19:43:29;6.28;;;1.60;;
62990;SDS011;49084;48.204;16.202;2022-08-11T19:46:17;1.63;;;1.52;;
62990;SDS011;49084;48.204;16.202;2022-08-11T19:49:05;2.03;;;1.55;;